Jackson Junction, Iowa
Current Conditions -  °F | °C
As of 6:15 AM on Sunday 25 Jan 2015 (Local Time) from KDEH Reporting Station
Light Rain Light Rain  
Wind Chill: -6°   Ceiling: 1000
Heat Index:   Visibility: 9mi
Dew Point: -2°   Wind: 15mph
Humidity: 87%   Direction: 60°ENE
Pressure: 29.74"   Gusts: 26mph
Location:  43.0382°N, 92.0219°W
Report Text: KDEH 251215Z AUTO 06013G23KT 9SM -RA OVC010 M00/M02 A2974 RMK AO2
Loading
Personal Weather Stations






























Interactive Weather Map New forecast layout! Learn more

10-Day Weather Forecast

Advertisements
Track Severe Weather on mobile